Time;durP1;ratioP1;P1;durP2;ratioP2;P2;SDS_P1;SDS_P2;PMS_P1;PMS_P2;Temp;Humidity;BMP_temperature;BMP_pressure;BME280_temperature;BME280_humidity;BME280_pressure;Samples;Min_cycle;Max_cycle;Signal;HPM_P1;HPM_P2
2021/05/18 00:02:16;;;;;;;1.30;1.20;;;;;;;13.92;62.80;96826.88;4998116;28;20384;-81
2021/05/18 00:04:41;;;;;;;1.92;1.10;;;;;;;13.98;61.85;96837.03;5014824;28;20037;-81
2021/05/18 00:07:11;;;;;;;1.85;1.17;;;;;;;14.00;62.19;96827.06;5015089;28;20037;-81
2021/05/18 00:12:21;;;;;;;3.15;1.60;;;;;;;13.94;62.87;96828.16;4990404;28;20028;-80
2021/05/18 00:14:47;;;;;;;2.05;1.60;;;;;;;13.94;62.85;96838.63;4992547;28;20675;-80
2021/05/18 00:17:12;;;;;;;2.20;1.98;;;;;;;13.91;63.03;96833.94;4975249;28;20033;-80
2021/05/18 00:19:37;;;;;;;3.22;2.03;;;;;;;13.95;63.44;96837.59;4974986;28;20324;-80
2021/05/18 00:22:03;;;;;;;2.85;2.10;;;;;;;13.93;63.37;96831.84;4991157;28;20036;-80
2021/05/18 00:24:28;;;;;;;2.67;1.50;;;;;;;14.03;63.21;96837.00;5014139;28;20034;-80
2021/05/18 00:26:54;;;;;;;2.50;2.13;;;;;;;14.01;63.07;96836.47;4993148;28;20111;-81
2021/05/18 00:29:20;;;;;;;2.45;2.25;;;;;;;13.95;63.58;96842.81;5014224;28;20038;-80
2021/05/18 00:31:45;;;;;;;3.88;2.22;;;;;;;14.03;63.46;96847.47;4998446;28;20086;-80
2021/05/18 00:34:11;;;;;;;3.17;2.55;;;;;;;14.04;62.74;96835.94;4981936;28;20036;-80
2021/05/18 00:36:36;;;;;;;3.05;2.50;;;;;;;14.10;63.02;96843.75;5002036;28;20037;-81
2021/05/18 00:39:02;;;;;;;2.55;2.30;;;;;;;14.08;63.23;96840.63;4997531;28;20251;-82
2021/05/18 00:41:28;;;;;;;3.17;2.85;;;;;;;14.14;62.15;96839.53;4982193;28;20059;-81
2021/05/18 00:43:53;;;;;;;3.00;2.70;;;;;;;14.22;62.65;96841.53;4997316;28;20033;-81
2021/05/18 00:46:20;;;;;;;4.00;2.70;;;;;;;14.21;62.58;96840.00;4973906;28;20427;-82
2021/05/18 00:48:56;;;;;;;3.17;2.47;;;;;;;14.22;62.99;96846.78;4982217;28;20473;-80
2021/05/18 00:51:22;;;;;;;2.75;2.50;;;;;;;14.19;62.44;96842.88;5013111;28;20056;-81
2021/05/18 00:53:48;;;;;;;2.90;2.70;;;;;;;14.17;62.87;96833.72;5007587;28;20061;-82
2021/05/18 00:56:22;;;;;;;2.88;2.63;;;;;;;14.17;63.02;96844.19;4992822;28;20543;-81
2021/05/18 00:58:48;;;;;;;4.00;2.58;;;;;;;14.11;63.34;96838.22;5003008;28;20116;-81
2021/05/18 01:01:19;;;;;;;3.40;2.47;;;;;;;13.92;62.88;96843.34;5004361;28;20033;-81
2021/05/18 01:03:46;;;;;;;2.75;2.08;;;;;;;14.13;63.00;96851.03;4972574;28;20033;-80
2021/05/18 01:06:29;;;;;;;3.13;2.30;;;;;;;14.12;62.76;96839.00;5005161;28;20377;-81
2021/05/18 01:08:55;;;;;;;4.63;2.28;;;;;;;14.07;63.04;96847.69;5005844;28;20034;-81
2021/05/18 01:11:23;;;;;;;3.22;2.10;;;;;;;14.13;62.09;96840.56;4997021;28;20112;-81
2021/05/18 01:13:50;;;;;;;1.80;1.70;;;;;;;14.24;62.27;96847.28;4981403;28;20037;-80
2021/05/18 01:16:15;;;;;;;3.03;2.38;;;;;;;14.15;62.44;96839.22;4997540;28;20029;-80
2021/05/18 01:18:44;;;;;;;2.30;2.03;;;;;;;14.09;62.64;96850.03;5017176;28;20083;-80
2021/05/18 01:21:10;;;;;;;2.47;2.22;;;;;;;14.13;62.65;96854.44;4993238;28;20033;-81
2021/05/18 01:23:36;;;;;;;2.33;1.90;;;;;;;14.14;62.46;96852.63;4980862;28;20552;-80
2021/05/18 01:26:02;;;;;;;3.45;2.28;;;;;;;14.08;62.91;96845.84;4997366;28;20044;-80
2021/05/18 01:28:28;;;;;;;3.55;2.03;;;;;;;14.19;62.34;96855.19;4997163;28;20039;-80
2021/05/18 01:30:55;;;;;;;3.30;1.90;;;;;;;14.18;61.62;96861.47;4996652;28;20126;-81
2021/05/18 01:33:20;;;;;;;2.20;1.90;;;;;;;14.28;61.62;96865.84;4990384;28;20033;-80
2021/05/18 01:35:47;;;;;;;2.72;1.75;;;;;;;14.21;61.55;96863.56;4981038;28;20037;-80
2021/05/18 01:38:16;;;;;;;2.30;2.03;;;;;;;14.20;61.86;96865.38;5013180;28;20060;-80
2021/05/18 01:43:11;;;;;;;3.20;2.67;;;;;;;14.16;62.02;96864.38;5012706;28;20040;-81
2021/05/18 01:45:37;;;;;;;3.58;2.63;;;;;;;14.12;62.30;96867.78;4996764;28;20045;-81
2021/05/18 01:48:08;;;;;;;3.65;2.20;;;;;;;14.02;62.01;96858.22;5013242;28;20068;-81
2021/05/18 01:50:35;;;;;;;2.42;2.22;;;;;;;14.11;62.33;96868.88;5010315;28;20436;-81
2021/05/18 01:53:01;;;;;;;3.58;2.38;;;;;;;14.03;62.30;96876.25;5013347;28;20029;-81
2021/05/18 01:56:18;;;;;;;2.75;2.55;;;;;;;14.01;62.19;96862.66;4993859;28;20056;-81
2021/05/18 01:58:12;;;;;;;4.85;2.95;;;;;;;14.04;62.28;96862.09;5005295;28;20559;-81
2021/05/18 02:00:40;;;;;;;3.83;2.30;;;;;;;13.93;62.53;96881.56;4996094;28;20382;-81
2021/05/18 02:03:06;;;;;;;3.33;2.10;;;;;;;14.07;62.27;96875.69;5006561;28;20463;-80
2021/05/18 02:05:38;;;;;;;3.17;2.72;;;;;;;13.90;62.10;96870.84;5012531;28;20538;-80
2021/05/18 02:08:05;;;;;;;3.95;2.83;;;;;;;14.05;61.47;96884.63;4980245;28;20465;-80
2021/05/18 02:10:31;;;;;;;5.28;2.67;;;;;;;14.02;62.12;96879.94;5012272;28;20033;-80
2021/05/18 02:12:56;;;;;;;4.13;2.28;;;;;;;13.96;61.90;96878.38;4973888;28;20197;-81
2021/05/18 02:15:39;;;;;;;3.67;2.47;;;;;;;14.00;61.66;96879.41;4991815;28;20376;-80
2021/05/18 02:20:52;;;;;;;4.20;2.20;;;;;;;14.04;61.51;96882.28;5011239;28;20026;-80
2021/05/18 02:26:02;;;;;;;2.53;2.33;;;;;;;13.89;62.07;96885.00;5008162;28;20065;-81
2021/05/18 02:28:29;;;;;;;4.03;2.55;;;;;;;13.89;61.77;96883.16;4996126;28;20036;-80
2021/05/18 02:30:55;;;;;;;2.60;2.28;;;;;;;13.91;62.25;96878.44;5011425;28;20037;-80
2021/05/18 02:33:21;;;;;;;4.70;2.40;;;;;;;13.89;62.58;96885.00;4995661;28;20184;-80
2021/05/18 02:35:46;;;;;;;8.75;2.60;;;;;;;13.88;61.98;96884.22;5012150;28;20044;-80
2021/05/18 02:38:11;;;;;;;2.92;1.80;;;;;;;13.81;61.66;96884.53;5012041;28;20071;-80
2021/05/18 02:40:39;;;;;;;3.33;1.77;;;;;;;13.86;61.64;96883.69;5005308;28;20060;-80
2021/05/18 02:43:05;;;;;;;4.32;1.98;;;;;;;13.72;62.36;96885.38;4979236;28;20103;-80
2021/05/18 02:45:59;;;;;;;2.97;1.73;;;;;;;13.76;62.19;96887.19;5012388;28;20037;-80
2021/05/18 02:51:00;;;;;;;3.42;1.88;;;;;;;13.81;61.44;96889.75;5014138;28;20112;-80
2021/05/18 02:53:25;;;;;;;3.05;1.60;;;;;;;13.61;62.06;96880.19;5011460;28;20109;-80
2021/05/18 03:01:29;;;;;;;1.65;1.25;;;;;;;13.64;61.80;96889.31;5013604;28;20573;-80
2021/05/18 03:03:55;;;;;;;2.00;1.55;;;;;;;13.64;62.18;96882.28;4995241;28;20104;-80
2021/05/18 03:06:20;;;;;;;3.17;1.30;;;;;;;13.62;62.17;96881.78;5011695;28;20037;-80
2021/05/18 03:08:45;;;;;;;1.83;1.65;;;;;;;13.64;61.88;96890.13;4995080;28;20469;-80
2021/05/18 03:11:12;;;;;;;1.67;1.58;;;;;;;13.63;61.64;96896.41;5011788;28;20029;-79
2021/05/18 03:13:39;;;;;;;2.53;1.40;;;;;;;13.65;61.70;96894.28;4994964;28;20325;-80
2021/05/18 03:16:05;;;;;;;2.55;1.42;;;;;;;13.61;61.82;96889.88;5004985;28;20029;-80
2021/05/18 03:18:30;;;;;;;1.98;1.25;;;;;;;13.67;61.44;96886.16;4999975;28;20468;-81
2021/05/18 03:20:55;;;;;;;3.17;1.30;;;;;;;13.69;61.85;96891.91;5008350;28;20064;-80
2021/05/18 03:23:21;;;;;;;1.67;1.52;;;;;;;13.68;61.54;96888.53;4978327;28;20037;-80
2021/05/18 03:25:46;;;;;;;1.50;1.40;;;;;;;13.59;61.66;96887.53;5011515;28;20420;-80
2021/05/18 03:28:12;;;;;;;4.07;1.63;;;;;;;13.49;61.58;96887.59;4994913;28;20029;-80
2021/05/18 03:35:50;;;;;;;3.03;1.20;;;;;;;13.52;62.06;96884.44;5013817;28;20040;-81
2021/05/18 03:38:39;;;;;;;1.75;1.10;;;;;;;13.60;62.12;96891.69;4978759;28;20038;-80
2021/05/18 03:41:13;;;;;;;1.80;1.30;;;;;;;13.47;62.50;96894.94;4994351;28;20128;-81
2021/05/18 03:43:47;;;;;;;2.00;1.48;;;;;;;13.48;62.57;96904.31;4995819;28;20049;-80
2021/05/18 03:52:17;;;;;;;5.15;2.30;;;;;;;13.43;62.42;96909.59;4996112;28;20025;-79
2021/05/18 03:54:38;;;;;;;3.33;2.08;;;;;;;13.44;62.62;96909.31;4994755;28;20069;-82
2021/05/18 04:02:52;;;;;;;2.10;1.50;;;;;;;13.50;62.58;96920.53;5004018;28;20188;-83
2021/05/18 04:19:00;;;;;;;2.20;1.92;;;;;;;13.52;63.01;96925.50;5001823;28;20080;-81
2021/05/18 04:41:13;;;;;;;5.05;3.13;;;;;;;13.62;63.26;96949.78;5012407;28;20033;-81
2021/05/18 04:59:42;;;;;;;5.35;3.00;;;;;;;13.89;62.28;96945.19;4957163;28;20706;-81
2021/05/18 05:02:30;;;;;;;6.38;3.10;;;;;;;13.92;62.47;96958.53;5018143;28;20060;-81
2021/05/18 05:07:33;;;;;;;4.95;3.33;;;;;;;13.81;61.47;96963.03;4998731;28;20595;-81
2021/05/18 05:09:58;;;;;;;3.75;3.30;;;;;;;13.78;62.53;96968.03;4996989;28;20465;-80
2021/05/18 05:14:49;;;;;;;4.03;3.15;;;;;;;13.85;62.26;96964.06;4996458;28;20038;-82
2021/05/18 05:17:14;;;;;;;2.83;2.33;;;;;;;13.80;61.45;96955.44;5002716;28;20037;-82
2021/05/18 05:19:41;;;;;;;4.97;2.45;;;;;;;13.95;60.93;96968.44;4986702;28;20045;-81
2021/05/18 05:22:07;;;;;;;2.42;2.20;;;;;;;13.88;61.52;96961.94;4995062;28;20120;-81
2021/05/18 05:24:33;;;;;;;4.75;2.17;;;;;;;13.89;61.80;96969.53;4980072;28;20531;-81
2021/05/18 05:26:59;;;;;;;4.60;2.33;;;;;;;13.94;61.86;96966.88;5013378;28;20068;-81
2021/05/18 05:29:24;;;;;;;2.92;2.38;;;;;;;13.98;62.03;96967.13;4991777;28;20115;-81
2021/05/18 05:31:51;;;;;;;3.58;2.10;;;;;;;13.99;62.00;96961.59;5013192;28;20029;-81
2021/05/18 05:34:18;;;;;;;3.28;2.15;;;;;;;14.09;62.47;96960.00;5013079;28;20041;-81
2021/05/18 05:36:44;;;;;;;3.60;2.00;;;;;;;14.18;61.86;96960.97;4981069;28;20029;-81
2021/05/18 05:39:15;;;;;;;2.60;2.40;;;;;;;14.13;62.23;96961.00;5030506;28;20037;-81
2021/05/18 05:41:40;;;;;;;3.25;1.92;;;;;;;14.22;62.05;96967.22;4980496;28;20103;-81
2021/05/18 05:44:06;;;;;;;3.47;1.63;;;;;;;14.26;61.08;96960.41;5028038;28;20034;-81
2021/05/18 05:46:32;;;;;;;4.15;1.77;;;;;;;14.42;60.89;96974.16;4980100;28;20038;-81
2021/05/18 05:48:58;;;;;;;2.00;1.60;;;;;;;14.65;60.92;96964.03;5012477;28;20448;-80
2021/05/18 05:51:26;;;;;;;4.28;1.20;;;;;;;14.45;61.12;96967.59;4996607;28;20033;-81
2021/05/18 05:53:53;;;;;;;2.33;1.38;;;;;;;14.61;60.32;96979.53;4979944;28;20033;-81
2021/05/18 05:56:18;;;;;;;2.10;1.45;;;;;;;14.82;60.58;96972.28;4995267;28;20022;-81
2021/05/18 05:58:47;;;;;;;2.25;2.05;;;;;;;14.61;60.37;96964.59;4989840;28;20036;-81
2021/05/18 06:01:13;;;;;;;4.40;2.50;;;;;;;14.82;60.70;96972.28;4996644;28;20400;-81
2021/05/18 06:03:39;;;;;;;3.50;2.22;;;;;;;15.01;58.90;96980.25;4989722;28;20122;-81
2021/05/18 06:06:05;;;;;;;5.97;1.92;;;;;;;14.97;60.10;96977.38;5000452;28;20215;-81
2021/05/18 06:08:36;;;;;;;3.28;2.10;;;;;;;15.08;59.41;96972.81;4991857;28;20091;-80
2021/05/18 06:11:05;;;;;;;4.03;2.30;;;;;;;15.11;58.92;96971.47;5002341;28;20037;-80
2021/05/18 06:37:25;;;;;;;4.13;2.95;;;;;;;15.12;59.40;97005.28;5030237;28;20033;-80
2021/05/18 06:48:03;;;;;;;6.05;3.10;;;;;;;15.55;57.02;97026.34;4984691;28;20025;-80
2021/05/18 06:50:29;;;;;;;6.07;2.80;;;;;;;15.63;58.51;97035.47;5008269;28;20040;-80
2021/05/18 06:52:56;;;;;;;7.20;4.53;;;;;;;15.72;57.16;97043.50;4995142;28;20104;-80
2021/05/18 06:55:27;;;;;;;6.18;3.17;;;;;;;15.57;57.78;97041.81;4974668;28;20026;-80
2021/05/18 06:58:02;;;;;;;5.78;3.15;;;;;;;15.33;58.32;97028.69;5012248;28;20030;-79
2021/05/18 07:00:28;;;;;;;6.55;3.45;;;;;;;15.57;58.09;97041.03;4977788;28;20083;-80
2021/05/18 07:02:56;;;;;;;5.43;3.15;;;;;;;15.25;59.33;97034.53;4993107;28;20376;-79
2021/05/18 07:10:28;;;;;;;6.32;3.17;;;;;;;15.60;59.10;97033.38;4975255;28;20494;-79
2021/05/18 07:12:53;;;;;;;3.53;1.77;;;;;;;15.41;55.32;97035.97;5010582;28;20040;-80
2021/05/18 07:15:18;;;;;;;3.80;1.77;;;;;;;15.60;55.75;97030.00;4959049;28;20036;-79
2021/05/18 07:17:44;;;;;;;3.90;2.10;;;;;;;15.87;55.46;97040.72;4996021;28;20034;-80
2021/05/18 07:20:10;;;;;;;8.48;2.45;;;;;;;15.94;54.84;97034.31;4978025;28;20042;-79
2021/05/18 07:22:35;;;;;;;3.72;2.08;;;;;;;15.96;54.85;97032.22;5010408;28;20080;-82
2021/05/18 07:25:01;;;;;;;5.32;1.80;;;;;;;15.99;53.88;97036.88;5022805;28;20532;-79
2021/05/18 07:27:28;;;;;;;4.43;1.63;;;;;;;16.02;52.83;97036.31;4963372;28;20026;-80
2021/05/18 07:29:53;;;;;;;6.78;2.05;;;;;;;15.79;55.84;97033.47;5009867;28;20029;-80
2021/05/18 07:32:18;;;;;;;6.35;1.92;;;;;;;15.74;55.24;97033.50;5010002;28;20033;-80
2021/05/18 07:34:44;;;;;;;2.90;2.17;;;;;;;15.83;55.78;97039.69;4976406;28;20424;-80
2021/05/18 07:37:09;;;;;;;5.75;2.40;;;;;;;15.57;57.01;97043.66;5010010;28;20067;-80
2021/05/18 07:39:35;;;;;;;3.28;1.83;;;;;;;15.64;56.31;97049.34;5005974;28;20128;-80
2021/05/18 07:42:01;;;;;;;5.05;2.35;;;;;;;15.64;55.90;97044.09;4987908;28;20107;-80
2021/05/18 07:44:28;;;;;;;5.30;2.35;;;;;;;15.69;56.61;97047.44;4974180;28;20037;-79
2021/05/18 07:46:54;;;;;;;4.32;2.08;;;;;;;15.81;57.13;97038.44;5024683;28;20029;-80
2021/05/18 07:59:55;;;;;;;5.90;1.90;;;;;;;14.64;59.74;97041.88;5119421;28;19915;-79
2021/05/18 08:02:31;;;;;;;4.63;1.67;;;;;;;13.86;61.03;97038.91;5076811;28;20060;-77
2021/05/18 08:07:42;;;;;;;3.78;1.70;;;;;;;13.82;63.35;97037.84;5117883;28;20118;-79
2021/05/18 08:10:18;;;;;;;3.65;1.63;;;;;;;13.82;62.77;97037.84;5089787;28;20034;-78
2021/05/18 08:12:45;;;;;;;2.00;1.50;;;;;;;13.68;63.56;97042.88;5071904;28;20235;-78
2021/05/18 10:36:10;;;;;;;1.15;0.70;;;;;;;16.87;54.88;96989.88;5042449;28;20579;-78
2021/05/18 10:38:49;;;;;;;3.28;0.50;;;;;;;17.41;54.63;96998.13;5034964;28;20494;-78
2021/05/18 10:41:18;;;;;;;2.33;0.45;;;;;;;18.12;51.12;96990.63;5051283;28;20024;-77
2021/05/18 10:43:55;;;;;;;1.17;0.70;;;;;;;18.38;52.23;96986.66;5036843;28;20029;-77
2021/05/18 10:46:28;;;;;;;0.95;0.85;;;;;;;18.73;49.06;96990.31;5071643;28;20077;-77
2021/05/18 10:49:09;;;;;;;1.48;0.50;;;;;;;18.18;47.26;96988.69;5074901;28;20079;-77
2021/05/18 10:51:44;;;;;;;4.68;1.52;;;;;;;17.87;51.31;96980.66;5054796;28;20076;-77
2021/05/18 10:54:29;;;;;;;2.33;1.25;;;;;;;18.28;48.10;96985.03;5054951;28;20450;-77
2021/05/18 10:57:00;;;;;;;2.72;1.42;;;;;;;18.55;49.04;96975.44;5081550;28;20051;-77
2021/05/18 10:59:43;;;;;;;1.65;0.60;;;;;;;18.21;50.51;96979.38;5038651;28;20027;-77
2021/05/18 11:02:24;;;;;;;2.47;0.70;;;;;;;17.95;46.86;96974.69;5071559;28;20103;-76
2021/05/18 11:04:51;;;;;;;2.55;0.75;;;;;;;17.96;51.76;96976.25;5035338;28;20047;-77
2021/05/18 11:07:22;;;;;;;1.73;0.95;;;;;;;17.31;47.92;96979.91;5049388;28;20050;-76
2021/05/18 11:09:49;;;;;;;2.10;0.50;;;;;;;16.89;46.60;96987.75;5051142;28;20077;-77
2021/05/18 11:12:18;;;;;;;2.92;0.57;;;;;;;16.55;47.72;96988.78;5051233;28;20056;-77
2021/05/18 11:14:51;;;;;;;0.88;0.60;;;;;;;16.29;46.28;96991.03;5049063;28;20042;-77
2021/05/18 11:17:23;;;;;;;0.82;0.63;;;;;;;16.55;46.71;96991.41;5064957;28;20032;-77
2021/05/18 11:20:05;;;;;;;1.23;0.40;;;;;;;16.48;44.75;96980.50;5062843;28;20036;-76
2021/05/18 11:24:30;;;;;;;1.45;0.50;;;;;;;16.09;47.66;96984.22;5113956;27;20142;-78
2021/05/18 11:26:57;;;;;;;1.55;0.47;;;;;;;15.84;47.53;96983.50;5086917;28;20035;-78
2021/05/18 11:29:40;;;;;;;1.30;0.57;;;;;;;15.34;48.50;96994.31;5085905;28;20400;-79
2021/05/18 11:32:12;;;;;;;1.92;0.52;;;;;;;15.37;50.73;96990.38;5100247;28;20140;-79
2021/05/18 11:34:58;;;;;;;0.85;0.40;;;;;;;15.32;51.23;96987.78;5106715;28;20414;-78
2021/05/18 11:37:31;;;;;;;1.02;0.60;;;;;;;15.58;51.15;96990.13;5070298;28;20032;-79
2021/05/18 11:40:17;;;;;;;2.38;0.80;;;;;;;15.39;53.01;96992.69;5105690;28;20039;-78
2021/05/18 11:42:44;;;;;;;1.42;0.55;;;;;;;15.50;51.31;96987.03;5088286;28;20028;-78
2021/05/18 11:45:14;;;;;;;1.27;0.40;;;;;;;15.23;50.95;96989.44;5107481;28;20073;-77
2021/05/18 11:47:42;;;;;;;0.95;0.60;;;;;;;15.26;51.56;96988.91;5089210;28;20027;-79
2021/05/18 11:50:30;;;;;;;0.95;0.43;;;;;;;14.76;52.02;96982.03;5107259;28;20382;-78
2021/05/18 11:52:57;;;;;;;1.20;0.47;;;;;;;15.02;52.04;96981.03;5104237;28;20078;-79
2021/05/18 11:55:32;;;;;;;0.85;0.30;;;;;;;14.83;51.90;96975.69;5083069;28;20214;-78
2021/05/18 11:57:59;;;;;;;1.13;0.50;;;;;;;14.87;51.81;96987.19;5068666;28;20070;-78
2021/05/18 12:00:34;;;;;;;2.63;0.50;;;;;;;14.69;52.09;96965.06;5102773;28;20487;-78
2021/05/18 12:03:02;;;;;;;1.48;0.60;;;;;;;15.02;52.34;96983.63;5103153;28;20055;-79
2021/05/18 12:05:29;;;;;;;0.80;0.55;;;;;;;15.44;49.58;96971.63;5106482;28;20118;-79
2021/05/18 12:07:56;;;;;;;0.85;0.32;;;;;;;16.08;51.05;96967.69;5104456;28;20076;-79
2021/05/18 12:10:31;;;;;;;2.05;0.40;;;;;;;16.40;48.73;96965.38;5089709;28;20027;-79
2021/05/18 12:12:59;;;;;;;1.50;0.40;;;;;;;17.06;47.99;96962.75;5106016;28;20031;-79
2021/05/18 12:15:26;;;;;;;1.60;0.30;;;;;;;17.00;46.14;96960.22;5089253;28;20031;-78
2021/05/18 12:17:54;;;;;;;1.52;0.52;;;;;;;16.82;51.07;96956.53;5123336;28;20027;-78
2021/05/18 12:20:22;;;;;;;0.60;0.30;;;;;;;16.77;47.16;96961.09;5045557;28;20019;-80
2021/05/18 12:22:52;;;;;;;0.57;0.50;;;;;;;16.68;48.13;96958.38;5078090;28;20035;-78
2021/05/18 12:25:29;;;;;;;1.05;0.50;;;;;;;16.39;50.36;96955.94;5106260;28;20497;-79
2021/05/18 12:27:57;;;;;;;1.75;0.50;;;;;;;16.61;50.28;96950.84;5075836;28;20068;-79
2021/05/18 12:30:38;;;;;;;1.15;0.52;;;;;;;16.59;48.17;96939.84;5089847;28;20078;-78
2021/05/18 12:33:05;;;;;;;0.90;0.50;;;;;;;16.91;48.27;96938.25;5100105;28;20036;-79
2021/05/18 12:35:32;;;;;;;3.33;0.77;;;;;;;17.09;49.55;96928.75;5072828;28;20050;-78
2021/05/18 12:37:59;;;;;;;2.25;1.00;;;;;;;16.98;46.60;96943.13;5047131;28;20032;-78
2021/05/18 12:40:33;;;;;;;1.58;0.60;;;;;;;16.78;48.12;96945.06;5064918;28;20119;-78
2021/05/18 12:43:13;;;;;;;0.85;0.60;;;;;;;16.45;47.90;96950.34;5075064;28;20437;-78
2021/05/18 12:45:41;;;;;;;2.20;0.68;;;;;;;16.87;47.91;96945.19;5105797;28;20051;-79
2021/05/18 12:48:12;;;;;;;1.45;0.70;;;;;;;16.88;44.37;96945.97;5065678;28;20421;-80
2021/05/18 12:50:44;;;;;;;0.65;0.65;;;;;;;16.82;43.34;96942.63;5056834;28;20032;-79
2021/05/18 12:53:32;;;;;;;1.70;0.38;;;;;;;16.66;46.91;96940.25;5069383;28;20541;-78
2021/05/18 12:56:00;;;;;;;2.15;0.50;;;;;;;17.06;44.53;96947.72;5070238;28;20028;-79
2021/05/18 12:58:31;;;;;;;0.95;0.40;;;;;;;17.06;46.84;96957.47;5068853;28;20046;-80
2021/05/18 13:01:06;;;;;;;1.55;0.47;;;;;;;16.90;44.00;96964.88;5059543;28;20420;-80
2021/05/18 13:03:33;;;;;;;1.70;0.40;;;;;;;16.96;46.60;96961.06;5075175;28;20028;-80
2021/05/18 13:05:59;;;;;;;1.05;0.30;;;;;;;16.96;46.05;96961.06;5084448;28;20114;-80
2021/05/18 13:08:37;;;;;;;0.80;0.43;;;;;;;17.01;44.44;96953.09;5092321;28;20031;-78
2021/05/18 13:13:38;;;;;;;0.60;0.45;;;;;;;17.07;45.65;96957.19;5110891;28;20114;-79
2021/05/18 13:16:18;;;;;;;1.63;0.50;;;;;;;16.82;45.44;96955.75;5075197;28;20028;-79
2021/05/18 13:18:59;;;;;;;1.17;0.65;;;;;;;16.42;47.82;96963.28;5093397;28;20039;-80
2021/05/18 13:21:39;;;;;;;0.63;0.52;;;;;;;16.16;45.51;96971.53;5067922;28;20572;-79
2021/05/18 13:26:36;;;;;;;1.15;0.43;;;;;;;15.09;49.04;96984.88;5073134;28;20035;-77
2021/05/18 13:29:20;;;;;;;1.35;0.50;;;;;;;14.93;50.94;96986.84;5057203;28;20024;-80
2021/05/18 13:31:49;;;;;;;1.50;0.70;;;;;;;15.00;51.31;96983.16;5075049;28;20054;-80
2021/05/18 13:34:16;;;;;;;1.58;0.50;;;;;;;14.91;51.68;96982.97;5074276;28;20099;-80
2021/05/18 13:36:44;;;;;;;2.83;0.70;;;;;;;14.91;54.47;96967.25;5091049;28;20398;-79
2021/05/18 13:39:16;;;;;;;2.60;1.38;;;;;;;15.02;57.05;96968.69;5070977;28;20601;-79
2021/05/18 13:41:43;;;;;;;1.50;0.50;;;;;;;15.42;53.97;96966.69;5074929;28;20505;-79
2021/05/18 13:44:12;;;;;;;2.35;0.77;;;;;;;15.47;53.35;96957.97;5073382;28;20497;-79
2021/05/18 13:46:39;;;;;;;1.77;0.52;;;;;;;15.63;53.55;96956.72;5055569;28;20072;-79
2021/05/18 13:49:06;;;;;;;0.47;0.30;;;;;;;15.77;53.36;96967.34;5071017;28;20070;-79
2021/05/18 13:51:33;;;;;;;2.42;0.65;;;;;;;15.60;52.04;96980.13;5068856;28;20095;-80
2021/05/18 13:54:00;;;;;;;1.73;0.70;;;;;;;15.66;52.20;96976.38;5091552;28;20449;-80
2021/05/18 13:56:29;;;;;;;3.25;0.80;;;;;;;15.53;52.21;96983.09;5078540;28;20119;-78
2021/05/18 13:58:56;;;;;;;2.28;0.90;;;;;;;15.51;54.10;96982.59;5073924;28;20095;-80
2021/05/18 14:01:23;;;;;;;3.20;0.77;;;;;;;15.27;55.50;96979.97;5070273;28;20423;-81
2021/05/18 14:03:50;;;;;;;1.42;1.20;;;;;;;15.34;56.93;96986.44;5055796;28;20081;-80
2021/05/18 14:06:17;;;;;;;1.38;0.88;;;;;;;15.22;56.57;96980.03;5053525;28;20039;-80
2021/05/18 14:08:44;;;;;;;3.13;1.50;;;;;;;15.23;57.27;96968.47;5059923;28;20036;-81
2021/05/18 14:11:19;;;;;;;1.45;0.90;;;;;;;15.10;57.84;96970.69;5089095;28;20616;-80
2021/05/18 14:13:54;;;;;;;1.10;0.80;;;;;;;15.25;57.35;96979.47;5066546;28;20035;-81
2021/05/18 14:16:22;;;;;;;1.80;0.80;;;;;;;15.17;57.22;96971.16;5053206;28;20040;-79
2021/05/18 14:18:53;;;;;;;2.17;1.02;;;;;;;15.25;57.91;96959.28;5068515;28;20270;-81
2021/05/18 14:21:21;;;;;;;0.70;0.68;;;;;;;15.40;59.45;96955.69;5051527;28;20032;-81
2021/05/18 14:26:26;;;;;;;1.02;0.57;;;;;;;15.35;59.06;96946.03;5074109;28;20074;-79
2021/05/18 14:28:52;;;;;;;;;;;;;;;15.34;57.82;96949.72;5070667;28;20111;-80
2021/05/18 14:31:21;;;;;;;1.15;0.45;;;;;;;15.53;54.91;96939.25;5102698;28;19956;-79
2021/05/18 14:33:48;;;;;;;3.35;0.60;;;;;;;15.59;55.68;96929.47;5066811;28;20042;-79
2021/05/18 14:36:15;;;;;;;1.33;0.40;;;;;;;15.64;54.52;96933.88;5075169;28;20035;-79
2021/05/18 14:38:43;;;;;;;0.60;0.40;;;;;;;15.81;54.26;96936.03;5058515;28;20539;-80
2021/05/18 14:57:17;;;;;;;0.55;0.40;;;;;;;15.86;51.99;96917.59;5062758;28;20038;-79
2021/05/18 14:59:43;;;;;;;0.70;0.40;;;;;;;16.10;52.57;96914.88;5062639;28;20035;-79
2021/05/18 15:02:13;;;;;;;0.57;0.40;;;;;;;16.29;51.78;96920.88;5067124;28;20111;-79
2021/05/18 15:04:40;;;;;;;0.50;0.40;;;;;;;16.42;49.88;96915.97;5054254;28;20023;-80
2021/05/18 15:07:07;;;;;;;1.15;0.30;;;;;;;16.65;51.68;96912.41;5071726;28;20050;-80
2021/05/18 15:09:35;;;;;;;1.35;0.32;;;;;;;16.64;49.04;96912.72;5065159;28;20032;-81
2021/05/18 15:12:03;;;;;;;0.45;0.45;;;;;;;16.69;49.31;96917.06;5069546;28;20035;-78
2021/05/18 15:14:30;;;;;;;1.02;0.50;;;;;;;16.68;48.33;96918.94;5055404;28;20058;-80
2021/05/18 15:16:57;;;;;;;0.70;0.70;;;;;;;16.78;50.29;96915.34;5054151;28;20032;-78
2021/05/18 15:19:26;;;;;;;0.50;0.40;;;;;;;16.95;48.92;96918.22;5089717;28;20450;-79
2021/05/18 15:21:52;;;;;;;1.42;0.60;;;;;;;16.96;49.79;96927.66;5055267;28;20049;-80
2021/05/18 15:24:20;;;;;;;0.70;0.40;;;;;;;17.01;49.41;96919.66;5072874;28;20036;-80
2021/05/18 15:26:47;;;;;;;0.40;0.30;;;;;;;17.02;48.65;96931.75;5046221;28;20032;-80
2021/05/18 15:29:17;;;;;;;1.10;0.50;;;;;;;17.06;48.24;96931.19;5071228;28;20032;-80
2021/05/18 15:31:46;;;;;;;1.55;0.60;;;;;;;17.09;48.40;96927.97;5083570;28;20405;-80
2021/05/18 15:34:13;;;;;;;0.80;0.80;;;;;;;17.08;48.03;96929.03;5060297;28;20106;-80
2021/05/18 15:36:40;;;;;;;1.10;0.82;;;;;;;17.04;47.62;96921.72;5089304;28;20038;-80
2021/05/18 15:39:07;;;;;;;0.77;0.40;;;;;;;17.07;48.32;96930.88;5085922;28;20059;-79
2021/05/18 15:41:34;;;;;;;2.42;0.50;;;;;;;16.65;49.81;96922.13;5089658;28;20031;-79
2021/05/18 15:44:03;;;;;;;0.40;0.40;;;;;;;16.77;48.56;96924.31;5087638;28;20060;-79
2021/05/18 15:46:30;;;;;;;0.77;0.50;;;;;;;16.76;48.73;96923.53;5089761;28;20371;-78
2021/05/18 15:48:57;;;;;;;0.73;0.47;;;;;;;16.63;48.91;96926.91;5068342;28;20032;-79
2021/05/18 15:51:24;;;;;;;1.42;0.40;;;;;;;16.59;47.40;96918.81;5088090;28;20031;-78
2021/05/18 15:53:51;;;;;;;0.57;0.35;;;;;;;16.33;48.09;96942.13;5067139;28;20109;-78
2021/05/18 15:56:19;;;;;;;0.98;0.38;;;;;;;15.99;48.91;96965.97;5047609;28;20568;-80
2021/05/18 15:58:46;;;;;;;0.80;0.50;;;;;;;15.65;50.36;96977.44;5059923;28;20054;-78
2021/05/18 16:01:12;;;;;;;0.68;0.50;;;;;;;15.48;49.81;96980.53;5066570;28;20046;-79
2021/05/18 16:03:40;;;;;;;0.93;0.47;;;;;;;15.19;51.35;96998.94;5069058;28;20433;-79
2021/05/18 16:06:07;;;;;;;0.95;0.60;;;;;;;14.98;52.21;97001.78;5052894;28;20032;-78
2021/05/18 16:11:06;;;;;;;1.08;0.25;;;;;;;14.23;53.78;97023.78;5076181;28;20092;-80
2021/05/18 16:13:33;;;;;;;1.98;0.65;;;;;;;14.37;55.62;97022.13;5075991;28;20316;-80
2021/05/18 16:16:07;;;;;;;1.67;0.82;;;;;;;14.04;55.03;97032.25;5076609;28;20462;-81
2021/05/18 16:18:34;;;;;;;1.73;0.57;;;;;;;13.99;57.53;97034.13;5059605;28;20032;-81
2021/05/18 16:21:02;;;;;;;0.75;0.30;;;;;;;13.82;56.79;97029.22;5090846;28;20564;-80
2021/05/18 16:23:29;;;;;;;3.63;0.90;;;;;;;13.66;56.90;97034.53;5073119;28;20036;-80
2021/05/18 16:25:57;;;;;;;3.63;1.55;;;;;;;13.52;57.73;97033.53;5092085;28;20822;-81
2021/05/18 16:28:24;;;;;;;2.05;0.90;;;;;;;13.53;58.51;97042.16;5073068;28;20025;-80
2021/05/18 16:30:51;;;;;;;1.27;0.50;;;;;;;13.38;60.32;97043.75;5061810;28;20023;-82
2021/05/18 16:33:19;;;;;;;0.75;0.20;;;;;;;13.33;60.69;97040.38;5092627;28;20035;-82
2021/05/18 16:35:46;;;;;;;0.30;0.20;;;;;;;13.17;62.00;97035.13;5092348;28;20035;-82
2021/05/18 16:38:13;;;;;;;0.30;0.28;;;;;;;13.08;62.29;97028.88;5065043;28;20111;-82
2021/05/18 16:40:40;;;;;;;1.58;0.20;;;;;;;13.13;62.51;97035.94;5086260;28;20043;-82
2021/05/18 16:43:07;;;;;;;1.83;0.50;;;;;;;13.09;62.36;97036.47;5065432;28;20094;-82
2021/05/18 16:45:35;;;;;;;0.98;0.30;;;;;;;12.90;63.15;97041.47;5096584;28;20031;-82
2021/05/18 16:48:03;;;;;;;2.15;0.20;;;;;;;12.93;62.88;97048.75;5076645;28;20505;-82
2021/05/18 16:50:31;;;;;;;1.65;0.30;;;;;;;12.89;63.34;97045.09;5074594;28;20027;-82
2021/05/18 16:52:58;;;;;;;0.75;0.30;;;;;;;12.77;63.67;97039.38;5078296;28;20513;-83